Time;durP1;ratioP1;P1;durP2;ratioP2;P2;SDS_P1;SDS_P2;PMS_P1;PMS_P2;Temp;Humidity;BMP_temperature;BMP_pressure;BME280_temperature;BME280_humidity;BME280_pressure;Samples;Min_cycle;Max_cycle;Signal;HPM_P1;HPM_P2
2024/03/08 00:00:54;;;;;;;25.90;18.75;;;;;;;;;;5026664;28;20241;-92
2024/03/08 00:03:23;;;;;;;24.98;18.30;;;;;;;;;;5033895;28;20691;-92
2024/03/08 00:05:51;;;;;;;25.35;17.20;;;;;;;;;;5021295;28;20237;-91
2024/03/08 00:08:19;;;;;;;27.85;16.38;;;;;;;;;;5026662;28;20206;-93
2024/03/08 00:10:47;;;;;;;26.25;16.55;;;;;;;;;;5024056;28;20209;-92
2024/03/08 00:13:16;;;;;;;26.15;17.05;;;;;;;;;;5027114;28;20242;-93
2024/03/08 00:15:45;;;;;;;26.08;18.02;;;;;;;;;;5023493;28;20615;-93
2024/03/08 00:18:14;;;;;;;29.13;19.02;;;;;;;;;;5031096;28;20244;-93
2024/03/08 00:20:43;;;;;;;28.00;17.90;;;;;;;;;;5016857;28;20716;-90
2024/03/08 00:23:12;;;;;;;25.23;18.38;;;;;;;;;;5013292;28;20298;-93
2024/03/08 00:25:40;;;;;;;26.00;17.83;;;;;;;;;;5029115;28;20229;-93
2024/03/08 00:28:13;;;;;;;27.05;18.17;;;;;;;;;;5001519;28;20202;-93
2024/03/08 00:30:42;;;;;;;27.02;18.88;;;;;;;;;;5025064;28;20256;-94
2024/03/08 00:33:12;;;;;;;25.55;17.80;;;;;;;;;;5018826;28;20215;-92
2024/03/08 00:35:40;;;;;;;24.45;17.33;;;;;;;;;;5033864;28;20210;-93
2024/03/08 00:38:08;;;;;;;24.17;16.88;;;;;;;;;;5017470;28;20214;-93
2024/03/08 00:40:37;;;;;;;30.15;18.80;;;;;;;;;;5024227;28;20220;-93
2024/03/08 00:43:05;;;;;;;25.48;18.05;;;;;;;;;;5037192;28;20190;-95
2024/03/08 00:45:33;;;;;;;25.77;18.80;;;;;;;;;;5016235;28;20234;-94
2024/03/08 00:48:02;;;;;;;25.90;18.67;;;;;;;;;;5020287;28;20234;-92
2024/03/08 00:50:32;;;;;;;27.80;17.38;;;;;;;;;;5018531;28;20272;-93
2024/03/08 00:53:00;;;;;;;28.38;18.60;;;;;;;;;;5005731;28;20222;-93
2024/03/08 00:55:29;;;;;;;28.40;17.95;;;;;;;;;;5030428;28;20256;-93
2024/03/08 00:57:57;;;;;;;23.15;15.40;;;;;;;;;;5016400;28;20206;-92
2024/03/08 01:00:26;;;;;;;24.70;17.52;;;;;;;;;;5008854;28;20245;-92
2024/03/08 01:02:57;;;;;;;24.25;17.63;;;;;;;;;;5003370;28;20729;-92
2024/03/08 01:05:25;;;;;;;29.60;16.70;;;;;;;;;;5002689;28;20290;-92
2024/03/08 01:07:55;;;;;;;27.67;17.70;;;;;;;;;;4991359;28;20274;-91
2024/03/08 01:10:24;;;;;;;32.33;19.52;;;;;;;;;;5028509;28;20292;-91
2024/03/08 01:12:54;;;;;;;24.50;17.00;;;;;;;;;;5025295;28;20288;-93
2024/03/08 01:15:22;;;;;;;26.75;16.52;;;;;;;;;;5015391;28;20270;-92
2024/03/08 01:17:51;;;;;;;25.90;18.00;;;;;;;;;;5010802;28;20444;-93
2024/03/08 01:20:21;;;;;;;22.02;16.02;;;;;;;;;;5006330;28;20341;-94
2024/03/08 01:22:49;;;;;;;27.15;17.33;;;;;;;;;;5018511;28;20696;-93
2024/03/08 01:25:19;;;;;;;26.38;18.05;;;;;;;;;;5043328;28;20328;-93
2024/03/08 01:27:47;;;;;;;25.48;17.50;;;;;;;;;;5037380;28;20289;-92
2024/03/08 01:30:17;;;;;;;21.42;15.82;;;;;;;;;;5000558;28;20237;-90
2024/03/08 01:32:45;;;;;;;26.50;17.70;;;;;;;;;;5003713;28;20645;-93
2024/03/08 01:35:13;;;;;;;23.23;15.80;;;;;;;;;;5004412;28;20266;-92
2024/03/08 01:37:42;;;;;;;26.15;17.83;;;;;;;;;;4999213;28;20302;-93
2024/03/08 01:40:11;;;;;;;27.38;18.15;;;;;;;;;;5004061;28;20733;-92
2024/03/08 01:42:41;;;;;;;23.58;16.80;;;;;;;;;;4999793;28;20270;-92
2024/03/08 01:45:13;;;;;;;23.75;17.05;;;;;;;;;;5000432;28;20740;-92
2024/03/08 01:50:36;;;;;;;27.20;18.70;;;;;;;;;;5010510;28;20287;-94
2024/03/08 01:53:05;;;;;;;23.20;15.90;;;;;;;;;;5008205;28;20288;-94
2024/03/08 01:55:34;;;;;;;27.40;17.50;;;;;;;;;;5001267;28;20291;-94
2024/03/08 01:58:05;;;;;;;24.35;16.95;;;;;;;;;;4999540;28;20263;-93
2024/03/08 02:00:33;;;;;;;28.60;18.90;;;;;;;;;;5015776;28;20776;-94
2024/03/08 02:03:02;;;;;;;27.63;17.70;;;;;;;;;;5016997;28;20673;-93
2024/03/08 02:05:30;;;;;;;24.08;17.15;;;;;;;;;;5015471;28;20285;-93
2024/03/08 02:07:59;;;;;;;25.20;17.98;;;;;;;;;;5003836;28;20241;-93
2024/03/08 02:10:27;;;;;;;29.02;17.45;;;;;;;;;;5006786;28;20360;-92
2024/03/08 02:12:55;;;;;;;27.63;18.40;;;;;;;;;;5006587;28;20318;-92
2024/03/08 02:15:25;;;;;;;31.27;18.83;;;;;;;;;;5018338;28;20744;-94
2024/03/08 02:17:54;;;;;;;22.63;16.58;;;;;;;;;;5008319;28;20257;-93
2024/03/08 02:20:22;;;;;;;29.00;18.70;;;;;;;;;;4998854;28;20898;-91
2024/03/08 02:22:52;;;;;;;29.38;17.70;;;;;;;;;;5001176;28;20274;-92
2024/03/08 02:25:20;;;;;;;29.75;18.73;;;;;;;;;;5010663;28;20224;-92
2024/03/08 02:27:49;;;;;;;28.50;18.30;;;;;;;;;;5010628;28;20265;-93
2024/03/08 02:30:17;;;;;;;28.23;19.10;;;;;;;;;;5010741;28;20226;-91
2024/03/08 02:32:46;;;;;;;29.77;18.27;;;;;;;;;;5012390;28;20209;-90
2024/03/08 02:35:14;;;;;;;31.08;19.27;;;;;;;;;;5011205;28;20225;-91
2024/03/08 02:37:43;;;;;;;30.15;20.15;;;;;;;;;;5005828;28;20282;-92
2024/03/08 02:40:13;;;;;;;24.85;17.77;;;;;;;;;;5011149;28;20213;-90
2024/03/08 02:42:41;;;;;;;26.33;16.58;;;;;;;;;;5011804;28;20292;-90
2024/03/08 02:45:10;;;;;;;26.80;18.00;;;;;;;;;;5013636;28;20271;-93
2024/03/08 02:47:39;;;;;;;26.13;17.27;;;;;;;;;;5006950;28;20203;-92
2024/03/08 02:50:08;;;;;;;24.70;18.95;;;;;;;;;;5009829;28;20282;-93
2024/03/08 02:52:37;;;;;;;28.58;18.20;;;;;;;;;;5006649;28;20339;-93
2024/03/08 02:55:06;;;;;;;28.00;18.55;;;;;;;;;;5006759;28;20277;-95
2024/03/08 02:57:35;;;;;;;29.70;18.48;;;;;;;;;;5010096;28;20292;-90
2024/03/08 03:00:04;;;;;;;27.15;18.80;;;;;;;;;;5012448;28;20284;-91
2024/03/08 03:02:33;;;;;;;29.48;18.52;;;;;;;;;;5003319;28;20286;-93
2024/03/08 03:05:05;;;;;;;24.35;17.67;;;;;;;;;;5007474;28;20270;-92
2024/03/08 03:07:34;;;;;;;24.98;17.75;;;;;;;;;;5007998;28;20614;-91
2024/03/08 03:10:02;;;;;;;28.27;19.58;;;;;;;;;;5005007;28;20305;-92
2024/03/08 03:12:31;;;;;;;29.58;18.70;;;;;;;;;;5016345;28;20302;-93
2024/03/08 03:15:01;;;;;;;32.53;20.27;;;;;;;;;;5005390;28;20213;-92
2024/03/08 03:17:30;;;;;;;28.77;20.45;;;;;;;;;;5009877;28;20738;-92
2024/03/08 03:19:58;;;;;;;32.00;19.25;;;;;;;;;;5009966;28;20258;-91
2024/03/08 03:22:26;;;;;;;28.90;19.08;;;;;;;;;;5011006;28;20262;-91
2024/03/08 03:24:58;;;;;;;33.90;18.58;;;;;;;;;;5006940;28;20265;-92
2024/03/08 03:27:26;;;;;;;31.42;19.55;;;;;;;;;;5008200;28;20295;-92
2024/03/08 03:29:55;;;;;;;31.20;17.90;;;;;;;;;;5009005;28;20666;-91
2024/03/08 03:32:26;;;;;;;30.48;17.85;;;;;;;;;;5016840;28;20274;-92
2024/03/08 03:34:54;;;;;;;30.63;18.25;;;;;;;;;;5010453;28;20643;-92
2024/03/08 03:37:23;;;;;;;33.50;18.80;;;;;;;;;;5011894;28;20266;-91
2024/03/08 03:39:53;;;;;;;30.70;18.35;;;;;;;;;;5015437;28;20291;-91
2024/03/08 03:42:21;;;;;;;30.83;19.58;;;;;;;;;;5007749;28;20289;-92
2024/03/08 03:44:50;;;;;;;33.47;19.13;;;;;;;;;;5010605;28;20324;-88
2024/03/08 03:47:19;;;;;;;30.33;19.40;;;;;;;;;;5017301;28;20647;-92
2024/03/08 03:49:48;;;;;;;28.20;19.48;;;;;;;;;;5010752;28;20270;-93
2024/03/08 03:52:17;;;;;;;28.40;18.65;;;;;;;;;;5007346;28;20317;-92
2024/03/08 03:54:45;;;;;;;26.02;18.63;;;;;;;;;;5004114;28;20742;-92
2024/03/08 03:57:13;;;;;;;29.65;18.88;;;;;;;;;;5007879;28;20294;-92
2024/03/08 03:59:42;;;;;;;29.88;18.75;;;;;;;;;;5013953;28;20781;-92
2024/03/08 04:02:10;;;;;;;29.88;19.55;;;;;;;;;;5012069;28;20305;-92
2024/03/08 04:04:39;;;;;;;28.77;19.70;;;;;;;;;;5002024;28;20206;-92
2024/03/08 04:07:10;;;;;;;34.30;19.98;;;;;;;;;;4998975;28;20277;-91
2024/03/08 04:09:39;;;;;;;33.30;20.42;;;;;;;;;;5012910;28;20332;-93
2024/03/08 04:12:09;;;;;;;34.08;20.77;;;;;;;;;;4995179;28;20214;-91
2024/03/08 04:14:39;;;;;;;33.92;20.27;;;;;;;;;;5014259;28;20285;-92
2024/03/08 04:17:08;;;;;;;31.85;21.63;;;;;;;;;;5011404;28;20285;-91
2024/03/08 04:19:37;;;;;;;30.23;20.27;;;;;;;;;;5006690;28;20213;-92
2024/03/08 04:22:05;;;;;;;35.90;21.38;;;;;;;;;;5002120;28;20593;-92
2024/03/08 04:24:36;;;;;;;35.42;20.85;;;;;;;;;;5001235;28;20220;-92
2024/03/08 04:27:04;;;;;;;37.75;21.80;;;;;;;;;;5002283;28;20668;-92
2024/03/08 04:29:34;;;;;;;31.55;20.40;;;;;;;;;;5002829;28;20202;-92
2024/03/08 04:32:04;;;;;;;33.72;19.20;;;;;;;;;;4983530;28;20209;-92
2024/03/08 04:34:32;;;;;;;31.48;21.30;;;;;;;;;;4989289;28;20214;-93
2024/03/08 04:37:00;;;;;;;33.17;19.85;;;;;;;;;;5004005;28;20210;-91
2024/03/08 04:39:29;;;;;;;33.55;20.15;;;;;;;;;;5000594;28;20690;-92
2024/03/08 04:42:01;;;;;;;32.05;20.67;;;;;;;;;;5006847;28;20229;-93
2024/03/08 04:44:29;;;;;;;39.60;21.50;;;;;;;;;;5007113;28;20224;-93
2024/03/08 04:46:58;;;;;;;37.20;21.98;;;;;;;;;;5005609;28;20221;-92
2024/03/08 04:49:27;;;;;;;36.60;23.48;;;;;;;;;;5012848;28;20209;-92
2024/03/08 04:51:56;;;;;;;39.53;21.13;;;;;;;;;;5011176;28;20289;-91
2024/03/08 04:54:24;;;;;;;33.28;21.50;;;;;;;;;;5012981;28;20340;-91
2024/03/08 04:56:52;;;;;;;35.88;22.60;;;;;;;;;;5015381;28;20296;-92
2024/03/08 04:59:22;;;;;;;34.30;21.55;;;;;;;;;;5015223;28;20758;-91
2024/03/08 05:01:51;;;;;;;36.45;22.20;;;;;;;;;;4987162;28;20233;-93
2024/03/08 05:04:19;;;;;;;32.00;21.92;;;;;;;;;;5004688;28;20202;-91
2024/03/08 05:06:48;;;;;;;37.10;22.42;;;;;;;;;;5010390;28;20285;-91
2024/03/08 05:09:17;;;;;;;36.42;22.85;;;;;;;;;;5010823;28;20733;-92
2024/03/08 05:11:46;;;;;;;30.80;21.00;;;;;;;;;;5004872;28;20789;-92
2024/03/08 05:14:16;;;;;;;36.92;21.70;;;;;;;;;;5008098;28;20297;-92
2024/03/08 05:16:48;;;;;;;34.28;20.25;;;;;;;;;;5017243;28;20270;-93
2024/03/08 05:19:17;;;;;;;31.95;19.75;;;;;;;;;;4990974;28;20210;-93
2024/03/08 05:21:46;;;;;;;33.72;19.98;;;;;;;;;;5015322;28;20317;-94
2024/03/08 05:24:14;;;;;;;31.60;20.23;;;;;;;;;;5009055;28;20211;-92
2024/03/08 05:26:42;;;;;;;32.15;20.65;;;;;;;;;;5008104;28;20713;-93
2024/03/08 05:29:11;;;;;;;30.40;19.23;;;;;;;;;;5002820;28;20207;-92
2024/03/08 05:31:44;;;;;;;33.38;20.45;;;;;;;;;;5001109;28;20285;-92
2024/03/08 05:34:14;;;;;;;33.30;19.33;;;;;;;;;;5008805;28;20679;-91
2024/03/08 05:36:44;;;;;;;33.45;19.85;;;;;;;;;;5002677;28;20748;-93
2024/03/08 05:39:12;;;;;;;34.13;20.88;;;;;;;;;;5005626;28;20270;-92
2024/03/08 05:41:41;;;;;;;37.15;22.13;;;;;;;;;;5004301;28;20227;-92
2024/03/08 05:44:10;;;;;;;40.15;21.00;;;;;;;;;;5014054;28;20340;-92
2024/03/08 05:46:38;;;;;;;44.60;25.50;;;;;;;;;;5015089;28;20210;-92
2024/03/08 05:49:09;;;;;;;41.60;22.73;;;;;;;;;;5015772;28;20853;-87
2024/03/08 05:51:40;;;;;;;36.33;22.60;;;;;;;;;;5005018;28;20281;-91
2024/03/08 05:54:09;;;;;;;32.47;20.52;;;;;;;;;;5009873;28;20292;-92
2024/03/08 05:56:38;;;;;;;36.58;22.67;;;;;;;;;;5001788;28;20753;-92
2024/03/08 05:59:06;;;;;;;33.88;20.73;;;;;;;;;;5009159;28;20265;-93
2024/03/08 06:01:36;;;;;;;38.55;22.50;;;;;;;;;;5006197;28;20229;-93
2024/03/08 06:04:04;;;;;;;37.50;21.27;;;;;;;;;;5014660;28;20293;-90
2024/03/08 06:06:33;;;;;;;35.67;20.90;;;;;;;;;;5008635;28;20284;-92
2024/03/08 06:09:09;;;;;;;28.83;19.98;;;;;;;;;;5016884;28;20285;-92
2024/03/08 06:11:38;;;;;;;35.17;20.75;;;;;;;;;;5006521;28;20190;-92
2024/03/08 06:14:06;;;;;;;32.55;19.13;;;;;;;;;;5013237;28;20280;-84
2024/03/08 06:16:35;;;;;;;39.38;21.27;;;;;;;;;;5003368;28;20210;-82
2024/03/08 06:19:04;;;;;;;35.13;20.85;;;;;;;;;;5006569;28;20194;-84
2024/03/08 06:21:34;;;;;;;30.98;20.85;;;;;;;;;;5007258;28;20226;-84
2024/03/08 06:24:04;;;;;;;30.58;18.85;;;;;;;;;;5000526;28;20199;-83
2024/03/08 06:26:32;;;;;;;31.13;19.27;;;;;;;;;;5006693;28;20324;-85
2024/03/08 06:29:01;;;;;;;33.83;21.55;;;;;;;;;;5006617;28;20206;-82
2024/03/08 06:31:29;;;;;;;30.13;19.65;;;;;;;;;;5010900;28;20301;-86
2024/03/08 06:33:59;;;;;;;29.90;20.08;;;;;;;;;;5010739;28;20212;-88
2024/03/08 06:36:28;;;;;;;34.10;20.55;;;;;;;;;;5012119;28;20291;-83
2024/03/08 06:38:57;;;;;;;35.22;19.90;;;;;;;;;;5005837;28;20202;-81
2024/03/08 06:41:28;;;;;;;30.60;20.48;;;;;;;;;;4981281;28;20268;-80
2024/03/08 06:43:59;;;;;;;33.95;21.48;;;;;;;;;;4995644;28;20207;-81
2024/03/08 06:46:35;;;;;;;35.10;22.30;;;;;;;;;;4996188;28;20212;-81
2024/03/08 06:49:03;;;;;;;35.60;22.65;;;;;;;;;;5009547;28;20672;-81
2024/03/08 06:51:32;;;;;;;33.17;20.70;;;;;;;;;;5000072;28;20217;-81
2024/03/08 06:54:00;;;;;;;29.77;21.58;;;;;;;;;;5001987;28;20743;-81
2024/03/08 06:56:30;;;;;;;32.97;20.42;;;;;;;;;;5009111;28;20206;-83
2024/03/08 06:58:59;;;;;;;32.13;19.00;;;;;;;;;;5006397;28;20307;-81
2024/03/08 07:01:28;;;;;;;30.77;19.80;;;;;;;;;;5001400;28;20217;-81
2024/03/08 07:03:56;;;;;;;28.15;18.45;;;;;;;;;;5005178;28;20202;-81
2024/03/08 07:06:25;;;;;;;40.22;20.30;;;;;;;;;;5002088;28;20202;-81
2024/03/08 07:08:54;;;;;;;32.08;18.70;;;;;;;;;;5007513;28;20657;-80
2024/03/08 07:11:22;;;;;;;31.40;19.52;;;;;;;;;;5003344;28;20206;-81
2024/03/08 07:13:52;;;;;;;28.52;18.95;;;;;;;;;;5005034;28;20209;-81
2024/03/08 07:16:21;;;;;;;25.70;17.55;;;;;;;;;;4997814;28;20583;-81
2024/03/08 07:18:52;;;;;;;33.53;19.55;;;;;;;;;;5006261;28;20223;-82
2024/03/08 07:21:20;;;;;;;32.65;19.95;;;;;;;;;;5005122;28;20221;-82
2024/03/08 07:24:06;;;;;;;30.98;17.73;;;;;;;;;;5008779;28;20292;-82
2024/03/08 07:26:34;;;;;;;28.55;17.33;;;;;;;;;;4994410;28;20788;-82
2024/03/08 07:29:04;;;;;;;28.48;17.50;;;;;;;;;;4989323;28;20214;-80
2024/03/08 07:31:45;;;;;;;32.30;18.30;;;;;;;;;;5000250;28;20214;-78
2024/03/08 07:34:13;;;;;;;34.22;20.15;;;;;;;;;;5000958;28;20758;-80
2024/03/08 07:36:41;;;;;;;30.95;20.50;;;;;;;;;;5009204;28;20210;-80
2024/03/08 07:39:11;;;;;;;30.58;18.80;;;;;;;;;;5003575;28;20214;-78
2024/03/08 07:41:40;;;;;;;24.20;17.35;;;;;;;;;;4999251;28;20708;-80
2024/03/08 07:44:10;;;;;;;26.30;17.75;;;;;;;;;;5001548;28;20268;-79
2024/03/08 07:46:39;;;;;;;32.35;18.40;;;;;;;;;;4999739;28;20264;-79
2024/03/08 07:49:10;;;;;;;24.48;17.20;;;;;;;;;;5001793;28;20214;-78
2024/03/08 07:51:39;;;;;;;28.52;17.48;;;;;;;;;;5000873;28;20195;-78
2024/03/08 07:54:09;;;;;;;27.85;18.02;;;;;;;;;;4997487;28;20206;-78
2024/03/08 07:56:38;;;;;;;24.83;16.92;;;;;;;;;;4996762;28;20579;-79
2024/03/08 07:59:06;;;;;;;27.17;18.65;;;;;;;;;;5005846;28;20217;-79
2024/03/08 08:01:36;;;;;;;27.05;17.45;;;;;;;;;;5002041;28;20288;-80
2024/03/08 08:04:04;;;;;;;27.77;18.45;;;;;;;;;;4999837;28;20306;-81
2024/03/08 08:06:33;;;;;;;24.85;17.55;;;;;;;;;;5009218;28;20212;-81
2024/03/08 08:09:01;;;;;;;22.67;15.73;;;;;;;;;;5005231;28;20264;-81
2024/03/08 08:11:30;;;;;;;23.63;17.33;;;;;;;;;;4996206;28;20257;-80
2024/03/08 08:14:00;;;;;;;26.65;17.25;;;;;;;;;;5009299;28;20219;-81
2024/03/08 08:16:29;;;;;;;24.63;17.10;;;;;;;;;;4994501;28;20213;-80
2024/03/08 08:18:59;;;;;;;27.65;17.38;;;;;;;;;;5002141;28;20213;-77
2024/03/08 08:21:27;;;;;;;24.15;17.55;;;;;;;;;;5000691;28;20252;-79
2024/03/08 08:23:55;;;;;;;26.00;18.05;;;;;;;;;;5004672;28;20237;-81
2024/03/08 08:26:26;;;;;;;25.83;18.08;;;;;;;;;;4997756;28;20226;-80
2024/03/08 08:28:54;;;;;;;25.80;17.55;;;;;;;;;;5000503;28;20670;-78
2024/03/08 08:31:23;;;;;;;24.55;17.48;;;;;;;;;;5002140;28;20601;-79
2024/03/08 08:33:56;;;;;;;21.40;14.95;;;;;;;;;;4998920;28;20206;-79
2024/03/08 08:36:25;;;;;;;25.10;18.25;;;;;;;;;;5000649;28;20570;-80
2024/03/08 08:38:56;;;;;;;24.67;18.23;;;;;;;;;;5001607;28;20206;-80
2024/03/08 08:41:24;;;;;;;25.52;17.67;;;;;;;;;;5006354;28;20201;-77
2024/03/08 08:43:53;;;;;;;25.55;17.85;;;;;;;;;;5002801;28;20229;-78
2024/03/08 08:46:24;;;;;;;25.83;17.13;;;;;;;;;;5006599;28;20210;-77
2024/03/08 08:48:52;;;;;;;25.50;16.67;;;;;;;;;;5002601;28;20207;-77
2024/03/08 08:51:22;;;;;;;21.60;17.40;;;;;;;;;;4990351;28;20615;-77
2024/03/08 08:53:52;;;;;;;22.33;17.42;;;;;;;;;;4997521;28;20545;-79
2024/03/08 08:56:22;;;;;;;22.75;16.50;;;;;;;;;;5000519;28;20217;-77
2024/03/08 08:58:50;;;;;;;23.77;18.30;;;;;;;;;;4996451;28;20211;-79
2024/03/08 09:01:19;;;;;;;21.42;17.05;;;;;;;;;;5000881;28;20665;-79
2024/03/08 09:03:47;;;;;;;25.08;17.70;;;;;;;;;;5002839;28;20733;-79
2024/03/08 09:06:16;;;;;;;24.67;17.92;;;;;;;;;;5006858;28;20268;-79
2024/03/08 09:08:46;;;;;;;28.02;18.80;;;;;;;;;;4985398;28;20206;-78
2024/03/08 09:11:17;;;;;;;26.08;18.92;;;;;;;;;;5000104;28;20252;-78
2024/03/08 09:13:48;;;;;;;29.38;18.02;;;;;;;;;;4995302;28;20205;-79
2024/03/08 09:16:17;;;;;;;27.38;17.55;;;;;;;;;;5002588;28;20277;-81
2024/03/08 09:18:45;;;;;;;22.77;18.23;;;;;;;;;;4991030;28;20222;-81
2024/03/08 09:21:13;;;;;;;22.08;16.60;;;;;;;;;;5005669;28;20214;-78
2024/03/08 09:23:44;;;;;;;26.38;19.00;;;;;;;;;;5001507;28;20724;-80
2024/03/08 09:26:15;;;;;;;26.25;19.50;;;;;;;;;;4994907;28;20230;-80
2024/03/08 09:28:47;;;;;;;25.58;17.70;;;;;;;;;;5001145;28;20211;-79
2024/03/08 09:31:15;;;;;;;22.90;17.75;;;;;;;;;;5004027;28;20212;-80
2024/03/08 09:33:44;;;;;;;28.67;20.35;;;;;;;;;;5000724;28;20208;-80
2024/03/08 09:36:12;;;;;;;29.52;20.13;;;;;;;;;;5012273;28;20216;-79
2024/03/08 09:38:40;;;;;;;24.70;18.92;;;;;;;;;;5007331;28;20583;-80
2024/03/08 09:41:10;;;;;;;21.85;18.90;;;;;;;;;;5009818;28;20566;-82
2024/03/08 09:43:38;;;;;;;24.52;19.40;;;;;;;;;;4995406;28;20223;-81
2024/03/08 09:46:10;;;;;;;23.38;18.85;;;;;;;;;;4998273;28;20206;-83
2024/03/08 09:48:41;;;;;;;22.50;17.42;;;;;;;;;;5004398;28;20214;-83
2024/03/08 09:51:13;;;;;;;24.52;18.88;;;;;;;;;;5002644;28;20213;-79
2024/03/08 09:53:41;;;;;;;22.85;18.40;;;;;;;;;;4998103;28;20207;-79
2024/03/08 09:56:11;;;;;;;21.05;16.95;;;;;;;;;;4997415;28;20212;-81
2024/03/08 09:58:57;;;;;;;24.38;18.35;;;;;;;;;;5007598;28;20221;-79
2024/03/08 10:01:28;;;;;;;23.73;18.05;;;;;;;;;;5003938;28;20653;-81
2024/03/08 10:04:01;;;;;;;23.88;18.65;;;;;;;;;;5004689;28;20214;-80
2024/03/08 10:06:31;;;;;;;21.35;18.40;;;;;;;;;;4999593;28;20654;-83
2024/03/08 10:08:59;;;;;;;23.63;17.55;;;;;;;;;;5009324;28;20276;-82
2024/03/08 10:11:28;;;;;;;27.77;17.05;;;;;;;;;;4987241;28;20206;-83
2024/03/08 10:13:57;;;;;;;22.27;18.60;;;;;;;;;;5000414;28;20198;-83
2024/03/08 10:16:28;;;;;;;24.38;17.35;;;;;;;;;;5010418;28;20206;-82
2024/03/08 10:19:00;;;;;;;20.83;17.95;;;;;;;;;;5006652;28;20210;-82
2024/03/08 10:21:29;;;;;;;23.65;18.55;;;;;;;;;;5010638;28;20212;-82
2024/03/08 10:23:59;;;;;;;24.80;19.33;;;;;;;;;;5006000;28;20230;-83
2024/03/08 10:26:27;;;;;;;22.85;19.63;;;;;;;;;;5007295;28;20235;-83
2024/03/08 10:28:57;;;;;;;21.75;18.27;;;;;;;;;;5013241;28;20206;-83
2024/03/08 10:31:26;;;;;;;24.80;17.95;;;;;;;;;;4998114;28;20688;-84
2024/03/08 10:33:54;;;;;;;20.60;16.90;;;;;;;;;;5008880;28;20256;-82
2024/03/08 10:36:24;;;;;;;26.70;17.63;;;;;;;;;;5010167;28;20210;-85
2024/03/08 10:38:53;;;;;;;24.13;17.80;;;;;;;;;;5018761;28;20313;-83
2024/03/08 10:41:26;;;;;;;22.35;18.30;;;;;;;;;;5003433;28;20734;-84
2024/03/08 10:44:02;;;;;;;23.77;19.90;;;;;;;;;;5007971;28;20305;-84
2024/03/08 10:46:40;;;;;;;25.40;19.55;;;;;;;;;;4996221;28;20720;-84
2024/03/08 10:49:14;;;;;;;25.17;19.80;;;;;;;;;;5009276;28;20285;-81
2024/03/08 10:51:44;;;;;;;22.83;18.02;;;;;;;;;;5013085;28;20262;-82
2024/03/08 10:54:15;;;;;;;22.58;18.23;;;;;;;;;;5003119;28;20205;-83
2024/03/08 10:56:45;;;;;;;21.65;18.08;;;;;;;;;;5004377;28;20233;-79
2024/03/08 10:59:14;;;;;;;27.38;19.75;;;;;;;;;;5013962;28;20206;-85
2024/03/08 11:01:46;;;;;;;23.92;18.00;;;;;;;;;;5008753;28;20306;-86
2024/03/08 11:04:15;;;;;;;22.05;18.42;;;;;;;;;;5006013;28;20285;-86
2024/03/08 11:06:49;;;;;;;21.63;18.38;;;;;;;;;;5008096;28;20263;-86
2024/03/08 11:09:32;;;;;;;25.33;19.83;;;;;;;;;;5004634;28;20266;-87
2024/03/08 11:12:25;;;;;;;21.80;18.10;;;;;;;;;;5008290;28;20198;-86
2024/03/08 11:14:53;;;;;;;20.80;18.08;;;;;;;;;;5001860;28;20957;-87
2024/03/08 11:17:22;;;;;;;22.13;19.60;;;;;;;;;;5012702;28;20203;-86
2024/03/08 11:19:51;;;;;;;23.55;19.98;;;;;;;;;;5014236;28;20721;-86
2024/03/08 11:22:31;;;;;;;26.27;21.05;;;;;;;;;;5002254;28;20271;-85
2024/03/08 11:25:01;;;;;;;22.13;18.73;;;;;;;;;;5014542;28;20245;-87
2024/03/08 11:27:32;;;;;;;22.08;19.45;;;;;;;;;;5018186;28;20258;-86
2024/03/08 11:30:09;;;;;;;23.05;19.00;;;;;;;;;;5016434;28;20234;-86
2024/03/08 11:32:40;;;;;;;22.55;19.60;;;;;;;;;;5024105;28;20209;-85
2024/03/08 11:35:20;;;;;;;25.15;19.77;;;;;;;;;;5030098;28;20265;-85
2024/03/08 11:37:52;;;;;;;22.63;18.95;;;;;;;;;;5018296;28;20257;-87
2024/03/08 11:40:21;;;;;;;22.08;19.55;;;;;;;;;;5016700;28;20198;-87
2024/03/08 11:42:51;;;;;;;22.88;19.20;;;;;;;;;;5015702;28;20253;-86
2024/03/08 11:45:21;;;;;;;22.85;18.65;;;;;;;;;;5013608;28;20290;-84
2024/03/08 11:47:49;;;;;;;26.15;19.90;;;;;;;;;;5020606;28;20214;-88
2024/03/08 11:50:21;;;;;;;23.00;20.63;;;;;;;;;;5012754;28;20269;-85
2024/03/08 11:52:49;;;;;;;21.80;18.77;;;;;;;;;;4991634;28;20201;-86
2024/03/08 11:55:20;;;;;;;23.58;20.63;;;;;;;;;;5002904;28;20290;-86
2024/03/08 11:57:49;;;;;;;23.15;19.80;;;;;;;;;;4987837;28;20281;-85
2024/03/08 12:00:25;;;;;;;42.80;28.35;;;;;;;;;;5014062;28;20289;-86
2024/03/08 12:03:04;;;;;;;22.60;20.13;;;;;;;;;;5003217;28;20198;-86
2024/03/08 12:05:34;;;;;;;23.65;21.02;;;;;;;;;;5007349;28;20221;-85
2024/03/08 12:08:03;;;;;;;25.15;19.38;;;;;;;;;;5004672;28;20286;-86
2024/03/08 12:10:33;;;;;;;23.48;20.98;;;;;;;;;;5000020;28;20221;-84
2024/03/08 12:13:02;;;;;;;23.40;20.23;;;;;;;;;;4997027;28;20743;-85
2024/03/08 12:15:33;;;;;;;27.73;19.85;;;;;;;;;;5007913;28;20617;-85
2024/03/08 12:18:04;;;;;;;26.13;21.10;;;;;;;;;;4997942;28;20285;-85
2024/03/08 12:20:33;;;;;;;22.63;20.17;;;;;;;;;;4999601;28;20211;-88
2024/03/08 12:23:02;;;;;;;21.45;19.00;;;;;;;;;;5002680;28;20285;-87
2024/03/08 12:25:35;;;;;;;22.98;20.58;;;;;;;;;;5006995;28;20225;-84
2024/03/08 12:28:12;;;;;;;21.95;19.58;;;;;;;;;;4998355;28;20252;-87
2024/03/08 12:30:48;;;;;;;23.65;21.17;;;;;;;;;;5000944;28;20341;-84
2024/03/08 12:33:17;;;;;;;23.58;21.08;;;;;;;;;;5003917;28;20895;-82
2024/03/08 12:35:58;;;;;;;21.65;19.60;;;;;;;;;;5004771;28;20209;-83
2024/03/08 12:38:31;;;;;;;22.50;20.33;;;;;;;;;;5013089;28;20298;-86
2024/03/08 12:41:02;;;;;;;22.75;20.45;;;;;;;;;;4994443;28;20258;-85
2024/03/08 12:43:31;;;;;;;22.10;19.90;;;;;;;;;;5002750;28;20210;-82
2024/03/08 12:46:00;;;;;;;23.67;20.60;;;;;;;;;;5007668;28;20317;-84
2024/03/08 12:48:28;;;;;;;24.10;21.77;;;;;;;;;;5010921;28;20724;-84
2024/03/08 12:50:57;;;;;;;23.63;21.38;;;;;;;;;;5000264;28;20644;-81
2024/03/08 12:53:28;;;;;;;22.90;20.70;;;;;;;;;;5001204;28;20552;-82
2024/03/08 12:56:00;;;;;;;23.23;21.03;;;;;;;;;;5001986;28;20635;-85
2024/03/08 12:58:31;;;;;;;25.20;22.77;;;;;;;;;;5004179;28;20635;-90
2024/03/08 13:01:00;;;;;;;24.90;22.40;;;;;;;;;;5003830;28;20629;-86
2024/03/08 13:03:28;;;;;;;24.33;21.83;;;;;;;;;;5007223;28;20635;-86
2024/03/08 13:05:57;;;;;;;24.17;21.83;;;;;;;;;;5008455;28;21238;-87
2024/03/08 13:08:27;;;;;;;25.20;22.70;;;;;;;;;;5008073;28;21204;-87
2024/03/08 13:10:56;;;;;;;27.47;24.93;;;;;;;;;;4983923;28;20604;-87
2024/03/08 13:13:24;;;;;;;26.63;24.07;;;;;;;;;;5006475;28;20720;-86
2024/03/08 13:15:56;;;;;;;26.27;23.90;;;;;;;;;;5008428;28;20613;-86
2024/03/08 13:18:24;;;;;;;24.83;22.63;;;;;;;;;;5010798;28;20625;-87
2024/03/08 13:20:53;;;;;;;25.43;23.27;;;;;;;;;;5014135;28;20629;-87
2024/03/08 13:23:21;;;;;;;25.40;23.00;;;;;;;;;;5009772;28;20733;-87
2024/03/08 13:25:49;;;;;;;24.57;22.37;;;;;;;;;;5015692;28;21235;-89
2024/03/08 13:28:23;;;;;;;24.40;22.37;;;;;;;;;;5006673;28;20641;-82
2024/03/08 13:30:51;;;;;;;25.30;22.63;;;;;;;;;;5016156;28;20720;-84
2024/03/08 13:33:21;;;;;;;25.97;23.60;;;;;;;;;;5001983;28;21231;-83
2024/03/08 13:35:51;;;;;;;26.73;24.20;;;;;;;;;;5008131;28;20617;-85
2024/03/08 13:38:20;;;;;;;24.73;22.63;;;;;;;;;;5009039;28;20711;-81
2024/03/08 13:40:51;;;;;;;24.57;22.50;;;;;;;;;;5008254;28;21196;-82
2024/03/08 13:43:20;;;;;;;25.07;22.77;;;;;;;;;;5010006;28;20652;-82
2024/03/08 13:45:52;;;;;;;26.17;23.77;;;;;;;;;;5003033;28;21219;-81
2024/03/08 13:48:22;;;;;;;26.87;24.30;;;;;;;;;;5007981;28;20617;-81
2024/03/08 13:50:51;;;;;;;27.37;24.87;;;;;;;;;;5006474;28;20635;-79
2024/03/08 13:53:20;;;;;;;28.03;25.43;;;;;;;;;;5002581;28;21188;-80
2024/03/08 13:55:49;;;;;;;26.53;24.13;;;;;;;;;;5009148;28;20609;-83
2024/03/08 13:58:17;;;;;;;24.80;22.50;;;;;;;;;;4997778;28;20655;-86
2024/03/08 14:00:47;;;;;;;26.47;24.03;;;;;;;;;;4999421;28;20633;-84
2024/03/08 14:03:17;;;;;;;26.73;24.40;;;;;;;;;;4994282;28;21186;-85
2024/03/08 14:05:46;;;;;;;26.23;23.93;;;;;;;;;;5004905;28;20664;-90
2024/03/08 14:08:17;;;;;;;25.15;22.75;;;;;;;;;;4989989;28;20839;-85
2024/03/08 14:10:46;;;;;;;24.63;22.53;;;;;;;;;;5005625;28;20688;-87
2024/03/08 14:13:18;;;;;;;26.90;24.30;;;;;;;;;;4996082;28;20629;-87
2024/03/08 14:15:48;;;;;;;27.80;24.10;;;;;;;;;;5003975;28;20614;-85
2024/03/08 14:18:18;;;;;;;27.67;25.17;;;;;;;;;;5000934;28;21202;-85
2024/03/08 14:20:50;;;;;;;27.93;25.40;;;;;;;;;;4994021;28;20695;-83
2024/03/08 14:23:20;;;;;;;28.73;26.23;;;;;;;;;;5004284;28;20630;-79
2024/03/08 14:25:51;;;;;;;25.83;23.33;;;;;;;;;;5002708;28;21065;-79
2024/03/08 14:28:20;;;;;;;28.97;26.10;;;;;;;;;;5001072;28;21270;-84
2024/03/08 14:30:54;;;;;;;28.40;25.87;;;;;;;;;;5007974;28;20640;-85
2024/03/08 14:33:25;;;;;;;27.23;24.93;;;;;;;;;;5006728;28;20796;-85